SLIT weather

Itaguazurenda Airport
Cordillera, Santa Cruz Department, Bolivia

Public forecast

Using degrees Celsius for public forecast. Weather courtesy of forecast.io.

METAR (pilot weather report)

Report is more than 6 hours old.

Closest report is Camiri Airport, 28.4 nm (52.6 km) WSW. Retrieved 2019/07/21 23:00 UTC (10 hours ago):

SLCA 212300Z 36005KT 9999 NSC 24/20 Q1004

TAF (pilot weather forecast)

Closest forecast is El Trompillo Airport, 118.1 nm (218.8 km) N. Retrieved 2019/07/22 06:45 UTC (2 hours ago):

TAF SLET 220440Z 2206/2306 33018KT 9999 SCT020 BKN070 TX28/2219Z TN22/2211Z BECMG 2214/2216 33025G35KT BKN020 PROB30 TEMPO 2219/2223 6000 SHRA FEW027TCU BECMG 2303/2305 24005KT 6000 RA SCT010 BKN020 BKN070